Talkeetna, AK (99676)

5:38 AM AKST on December 11, 2016 (GMT -0900)
Talkeetna | | Change Station

Elev 358 ft 62.32 °N, 150.09 °W | Updated 45 minutes ago

Clear
Clear
-3 °F
Feels Like -3 °F
N
0
Wind Variable Wind from North

Today
High -- | Low -- °F
--% Chance of Precip.
Yesterday
High -- | Low -- °F
Precip. -- in
Pressure 30.35 in
Visibility 10.0 miles
Clouds Clear
Dew Point -7 °F
Humidity 82%
Rainfall 0.00 in
Snow Depth Not available.
10:18 AM 3:29 PM
Waxing Gibbous, 92% visible
METAR PATK 111353Z AUTO 00000KT 10SM CLR M19/M22 A3032 RMK AO2 SLP278 T11941217 TSNO
Pressure 30.35 in
Visibility 10.0 miles
Clouds Clear
Dew Point -7 °F
Humidity 82%
Rainfall 0.00 in
Snow Depth Not available.
10:18 AM 3:29 PM
Waxing Gibbous, 92% visible
METAR PATK 111353Z AUTO 00000KT 10SM CLR M19/M22 A3032 RMK AO2 SLP278 T11941217 TSNO

10-Day Weather Forecast

Almanac

Astronomy

Dec. 11, 2016 Rise Set
Actual Time
Civil Twilight
Nautical Twilight
Astronomical Twilight
Moon
Length of Visible Light
Length of Day
Tomorrow will be .
, % of the Moon is Illuminated

Today's Extremes

State Highs State Lows

Community

WunderPhotos

Upload Photos

1,956,719 photos uploaded!

WunderBlog® & News

Nearby

Air Quality

  Air Quality AQ Index Pollutant
Not available.

Snow Depth

Station Depth Elevation

Earthquake Activity

City Distance Mag. Time & Date
Minimum magnitude displayed is 2.5.

Coastal Water Temperatures

Place Temperature

Stations

Nearby Weather Stations

Station Location Temp. Windchill Dew Point Humidity Wind Precip. Elev Updated Type
                   

Watches & Warnings

There are currently no watches in effect.